Time;durP1;ratioP1;P1;durP2;ratioP2;P2;SDS_P1;SDS_P2;PMS_P1;PMS_P2;Temp;Humidity;BMP_temperature;BMP_pressure;BME280_temperature;BME280_humidity;BME280_pressure;Samples;Min_cycle;Max_cycle;Signal;HPM_P1;HPM_P2
2022/12/21 00:00:16;;;;;;;;;;;;;;;;;;1032151;28;20000;-78
2022/12/21 00:00:47;;;;;;;;;;;;;;;;;;1035595;28;19944;-78
2022/12/21 00:01:18;;;;;;;;;;;;;;;;;;1036928;28;19914;-78
2022/12/21 00:01:48;;;;;;;;;;;;;;;;;;1039864;28;19944;-79
2022/12/21 00:02:19;;;;;;;;;;;;;;;;;;1036007;28;19914;-79
2022/12/21 00:02:50;;;;;;;;;;;;;;;;;;1035589;28;19914;-79
2022/12/21 00:03:21;;;;;;;;;;;;;;;;;;1035788;28;19914;-79
2022/12/21 00:03:53;;;;;;;;;;;;;;;;;;1036733;28;19937;-78
2022/12/21 00:04:24;;;;;;;;;;;;;;;;;;1038405;28;19921;-78
2022/12/21 00:04:55;;;;;;;;;;;;;;;;;;1035569;28;19913;-79
2022/12/21 00:05:25;;;;;;;;;;;;;;;;;;1035831;28;20047;-77
2022/12/21 00:05:56;;;;;;;;;;;;;;;;;;1035304;28;19921;-78
2022/12/21 00:06:27;;;;;;;;;;;;;;;;;;1032279;28;19910;-78
2022/12/21 00:06:58;;;;;;;;;;;;;;;;;;1031761;28;19957;-79
2022/12/21 00:07:29;;;;;;;;;;;;;;;;;;1031530;28;19914;-78
2022/12/21 00:08:00;;;;;;;;;;;;;;;;;;1030826;28;19922;-78
2022/12/21 00:08:31;;;;;;;;;;;;;;;;;;1035772;28;20567;-78
2022/12/21 00:09:02;;;;;;;;;;;;;;;;;;1036893;28;19909;-78
2022/12/21 00:09:33;;;;;;;;;;;;;;;;;;1035726;28;19920;-78
2022/12/21 00:10:04;;;;;;;;;;;;;;;;;;1036241;28;19920;-78
2022/12/21 00:10:35;;;;;;;;;;;;;;;;;;1035697;28;19921;-78
2022/12/21 00:11:06;;;;;;;;;;;;;;;;;;1035967;28;20423;-78
2022/12/21 00:11:37;;;;;;;;;;;;;;;;;;1032133;28;19920;-78
2022/12/21 00:12:08;;;;;;;;;;;;;;;;;;1031988;28;19918;-78
2022/12/21 00:12:39;;;;;;;;;;;;;;;;;;1035817;28;20904;-79
2022/12/21 00:13:09;;;;;;;;;;;;;;;;;;1036078;28;19968;-79
2022/12/21 00:13:41;;;;;;;;;;;;;;;;;;1039775;28;19917;-78
2022/12/21 00:14:12;;;;;;;;;;;;;;;;;;1036207;28;19909;-78
2022/12/21 00:14:43;;;;;;;;;;;;;;;;;;1035395;28;19918;-78
2022/12/21 00:15:14;;;;;;;;;;;;;;;;;;1031706;28;19960;-77
2022/12/21 00:15:45;;;;;;;;;;;;;;;;;;1031136;28;19948;-78
2022/12/21 00:16:15;;;;;;;;;;;;;;;;;;1028811;28;19937;-79
2022/12/21 00:16:46;;;;;;;;;;;;;;;;;;1032621;28;20005;-78
2022/12/21 00:17:17;;;;;;;;;;;;;;;;;;1035713;28;20027;-78
2022/12/21 00:17:48;;;;;;;;;;;;;;;;;;1031528;28;19914;-79
2022/12/21 00:18:19;;;;;;;;;;;;;;;;;;1035894;28;19929;-80
2022/12/21 00:18:50;;;;;;;;;;;;;;;;;;1035674;28;20008;-79
2022/12/21 00:19:21;;;;;;;;;;;;;;;;;;1036903;28;19914;-78
2022/12/21 00:19:51;;;;;;;;;;;;;;;;;;1035625;28;20084;-79
2022/12/21 00:20:22;;;;;;;;;;;;;;;;;;1035803;28;20533;-78
2022/12/21 00:20:53;;;;;;;;;;;;;;;;;;1035463;28;19936;-77
2022/12/21 00:21:24;;;;;;;;;;;;;;;;;;1034521;28;20655;-78
2022/12/21 00:21:55;;;;;;;;;;;;;;;;;;1036533;28;19921;-80
2022/12/21 00:22:26;;;;;;;;;;;;;;;;;;1040111;28;19960;-78
2022/12/21 00:22:57;;;;;;;;;;;;;;;;;;1035525;28;19913;-79
2022/12/21 00:23:28;;;;;;;;;;;;;;;;;;1035620;28;19914;-78
2022/12/21 00:23:59;;;;;;;;;;;;;;;;;;1035365;28;19924;-78
2022/12/21 00:24:29;;;;;;;;;;;;;;;;;;1036859;28;19920;-78
2022/12/21 00:25:00;;;;;;;;;;;;;;;;;;1035517;28;19936;-78
2022/12/21 00:25:31;;;;;;;;;;;;;;;;;;1035704;28;19980;-78
2022/12/21 00:26:02;;;;;;;;;;;;;;;;;;1035516;28;19913;-80
2022/12/21 00:26:33;;;;;;;;;;;;;;;;;;1036018;28;20702;-79
2022/12/21 00:27:04;;;;;;;;;;;;;;;;;;1036156;28;20008;-78
2022/12/21 00:27:35;;;;;;;;;;;;;;;;;;1035714;28;20568;-79
2022/12/21 00:28:05;;;;;;;;;;;;;;;;;;1035425;28;19914;-78
2022/12/21 00:28:36;;;;;;;;;;;;;;;;;;1035838;28;20569;-79
2022/12/21 00:29:07;;;;;;;;;;;;;;;;;;1040105;28;19944;-79
2022/12/21 00:29:38;;;;;;;;;;;;;;;;;;1036218;28;20671;-79
2022/12/21 00:30:09;;;;;;;;;;;;;;;;;;1031539;28;19945;-78
2022/12/21 00:30:40;;;;;;;;;;;;;;;;;;1031285;28;19920;-78
2022/12/21 00:31:11;;;;;;;;;;;;;;;;;;1032041;28;19965;-78
2022/12/21 00:31:41;;;;;;;;;;;;;;;;;;1035682;28;19913;-78
2022/12/21 00:32:12;;;;;;;;;;;;;;;;;;1036328;28;19937;-79
2022/12/21 00:32:43;;;;;;;;;;;;;;;;;;1035419;28;20368;-78
2022/12/21 00:33:14;;;;;;;;;;;;;;;;;;1035717;28;19920;-78
2022/12/21 00:33:45;;;;;;;;;;;;;;;;;;1035466;28;20465;-79
2022/12/21 00:34:19;;;;;;;;;;;;;;;;;;1031947;28;19921;-78
2022/12/21 00:34:50;;;;;;;;;;;;;;;;;;1032258;28;19921;-79
2022/12/21 00:35:20;;;;;;;;;;;;;;;;;;1035632;28;19932;-78
2022/12/21 00:35:51;;;;;;;;;;;;;;;;;;1035448;28;19920;-78
2022/12/21 00:36:22;;;;;;;;;;;;;;;;;;1035648;28;20590;-78
2022/12/21 00:36:53;;;;;;;;;;;;;;;;;;1035242;28;19913;-79
2022/12/21 00:37:24;;;;;;;;;;;;;;;;;;1036366;28;19917;-78
2022/12/21 00:37:55;;;;;;;;;;;;;;;;;;1035351;28;19910;-78
2022/12/21 00:38:26;;;;;;;;;;;;;;;;;;1039786;28;19984;-78
2022/12/21 00:38:57;;;;;;;;;;;;;;;;;;1039871;28;19924;-79
2022/12/21 00:39:28;;;;;;;;;;;;;;;;;;1040003;28;19920;-79
2022/12/21 00:39:58;;;;;;;;;;;;;;;;;;1040259;28;19909;-78
2022/12/21 00:40:29;;;;;;;;;;;;;;;;;;1035539;28;20359;-78
2022/12/21 00:41:02;;;;;;;;;;;;;;;;;;1031182;28;19952;-78
2022/12/21 00:41:33;;;;;;;;;;;;;;;;;;1031695;28;19953;-78
2022/12/21 00:42:03;;;;;;;;;;;;;;;;;;1031298;28;19944;-78
2022/12/21 00:42:34;;;;;;;;;;;;;;;;;;1036341;28;19910;-78
2022/12/21 00:43:05;;;;;;;;;;;;;;;;;;1035594;28;20454;-77
2022/12/21 00:43:36;;;;;;;;;;;;;;;;;;1035779;28;19906;-78
2022/12/21 00:44:07;;;;;;;;;;;;;;;;;;1035405;28;20521;-77
2022/12/21 00:44:38;;;;;;;;;;;;;;;;;;1031603;28;19938;-78
2022/12/21 00:45:09;;;;;;;;;;;;;;;;;;1032219;28;19910;-78
2022/12/21 00:45:40;;;;;;;;;;;;;;;;;;1031379;28;19910;-78
2022/12/21 00:46:10;;;;;;;;;;;;;;;;;;1031423;28;19906;-77
2022/12/21 00:46:41;;;;;;;;;;;;;;;;;;1035371;28;19909;-78
2022/12/21 00:47:13;;;;;;;;;;;;;;;;;;1035579;28;19947;-78
2022/12/21 00:47:44;;;;;;;;;;;;;;;;;;1040665;28;20493;-77
2022/12/21 00:48:15;;;;;;;;;;;;;;;;;;1039387;28;20435;-77
2022/12/21 00:48:46;;;;;;;;;;;;;;;;;;1035667;28;19917;-78
2022/12/21 00:49:16;;;;;;;;;;;;;;;;;;1038631;28;20534;-77
2022/12/21 00:49:48;;;;;;;;;;;;;;;;;;1035490;28;19936;-78
2022/12/21 00:50:19;;;;;;;;;;;;;;;;;;1035829;28;19909;-79
2022/12/21 00:50:50;;;;;;;;;;;;;;;;;;1031444;28;19993;-77
2022/12/21 00:51:21;;;;;;;;;;;;;;;;;;1031890;28;19912;-78
2022/12/21 00:51:52;;;;;;;;;;;;;;;;;;1035807;28;20607;-77
2022/12/21 00:52:23;;;;;;;;;;;;;;;;;;1038947;28;20348;-78
2022/12/21 00:52:54;;;;;;;;;;;;;;;;;;1034290;28;19910;-79
2022/12/21 00:53:25;;;;;;;;;;;;;;;;;;1027330;28;20529;-77
2022/12/21 00:53:57;;;;;;;;;;;;;;;;;;1027351;28;19911;-77
2022/12/21 00:54:28;;;;;;;;;;;;;;;;;;1027543;28;19906;-78
2022/12/21 00:54:59;;;;;;;;;;;;;;;;;;1031819;28;19909;-77
2022/12/21 00:55:30;;;;;;;;;;;;;;;;;;1033004;28;20023;-78
2022/12/21 00:56:01;;;;;;;;;;;;;;;;;;1031466;28;20117;-77
2022/12/21 00:56:32;;;;;;;;;;;;;;;;;;1035311;28;19948;-78
2022/12/21 00:57:03;;;;;;;;;;;;;;;;;;1035309;28;20450;-78
2022/12/21 00:57:34;;;;;;;;;;;;;;;;;;1031421;28;19906;-77
2022/12/21 00:58:04;;;;;;;;;;;;;;;;;;1032061;28;19910;-78
2022/12/21 00:58:35;;;;;;;;;;;;;;;;;;1027558;28;19934;-78
2022/12/21 00:59:06;;;;;;;;;;;;;;;;;;1027553;28;19910;-77
2022/12/21 00:59:37;;;;;;;;;;;;;;;;;;1027640;28;19917;-77
2022/12/21 01:00:09;;;;;;;;;;;;;;;;;;1031615;28;20067;-77
2022/12/21 01:00:40;;;;;;;;;;;;;;;;;;1032098;28;19910;-78
2022/12/21 01:01:11;;;;;;;;;;;;;;;;;;1035490;28;20011;-78
2022/12/21 01:01:42;;;;;;;;;;;;;;;;;;1035513;28;20332;-78
2022/12/21 01:02:12;;;;;;;;;;;;;;;;;;1036211;28;19912;-77
2022/12/21 01:02:43;;;;;;;;;;;;;;;;;;1037726;28;20547;-77
2022/12/21 01:03:14;;;;;;;;;;;;;;;;;;1036307;28;19909;-77
2022/12/21 01:03:45;;;;;;;;;;;;;;;;;;1035449;28;20297;-77
2022/12/21 01:04:16;;;;;;;;;;;;;;;;;;1035810;28;19941;-78
2022/12/21 01:04:47;;;;;;;;;;;;;;;;;;1036883;28;20001;-77
2022/12/21 01:05:18;;;;;;;;;;;;;;;;;;1034600;28;19971;-78
2022/12/21 01:05:48;;;;;;;;;;;;;;;;;;1036257;28;19910;-76
2022/12/21 01:06:19;;;;;;;;;;;;;;;;;;1032668;28;19993;-78
2022/12/21 01:06:50;;;;;;;;;;;;;;;;;;1035618;28;19909;-77
2022/12/21 01:07:21;;;;;;;;;;;;;;;;;;1035604;28;19909;-77
2022/12/21 01:07:52;;;;;;;;;;;;;;;;;;1035471;28;20016;-78
2022/12/21 01:08:23;;;;;;;;;;;;;;;;;;1036261;28;19953;-77
2022/12/21 01:08:54;;;;;;;;;;;;;;;;;;1040022;28;19913;-77
2022/12/21 01:09:25;;;;;;;;;;;;;;;;;;1035289;28;19913;-77
2022/12/21 01:09:56;;;;;;;;;;;;;;;;;;1035370;28;19926;-78
2022/12/21 01:10:27;;;;;;;;;;;;;;;;;;1039645;28;19964;-77
2022/12/21 01:10:58;;;;;;;;;;;;;;;;;;1039785;28;19921;-77
2022/12/21 01:11:28;;;;;;;;;;;;;;;;;;1033907;28;19913;-76
2022/12/21 01:11:59;;;;;;;;;;;;;;;;;;1027343;28;20017;-77
2022/12/21 01:12:30;;;;;;;;;;;;;;;;;;1023334;29;20021;-78
2022/12/21 01:13:01;;;;;;;;;;;;;;;;;;1024986;28;19910;-77
2022/12/21 01:13:32;;;;;;;;;;;;;;;;;;1027980;28;19921;-78
2022/12/21 01:14:03;;;;;;;;;;;;;;;;;;1031562;28;20362;-77
2022/12/21 01:14:34;;;;;;;;;;;;;;;;;;1031256;28;19913;-77
2022/12/21 01:15:04;;;;;;;;;;;;;;;;;;1031050;28;20649;-76
2022/12/21 01:15:35;;;;;;;;;;;;;;;;;;1031198;28;20065;-78
2022/12/21 01:16:06;;;;;;;;;;;;;;;;;;1028164;28;19921;-78
2022/12/21 01:16:37;;;;;;;;;;;;;;;;;;1031696;28;20745;-77
2022/12/21 01:17:08;;;;;;;;;;;;;;;;;;1035308;28;19993;-78
2022/12/21 01:17:39;;;;;;;;;;;;;;;;;;1035138;28;20009;-78
2022/12/21 01:18:10;;;;;;;;;;;;;;;;;;1039832;28;19936;-77
2022/12/21 01:18:41;;;;;;;;;;;;;;;;;;1039811;28;19913;-77
2022/12/21 01:19:12;;;;;;;;;;;;;;;;;;1036091;28;19936;-78
2022/12/21 01:19:43;;;;;;;;;;;;;;;;;;1035065;28;19913;-77
2022/12/21 01:20:14;;;;;;;;;;;;;;;;;;1035517;28;20503;-77
2022/12/21 01:20:44;;;;;;;;;;;;;;;;;;1031401;28;19918;-77
2022/12/21 01:21:15;;;;;;;;;;;;;;;;;;1036134;28;19917;-79
2022/12/21 01:21:46;;;;;;;;;;;;;;;;;;1035558;28;20027;-77
2022/12/21 01:22:17;;;;;;;;;;;;;;;;;;1035442;28;19961;-80
2022/12/21 01:22:48;;;;;;;;;;;;;;;;;;1030849;28;19914;-78
2022/12/21 01:23:19;;;;;;;;;;;;;;;;;;1030558;28;20429;-78
2022/12/21 01:23:50;;;;;;;;;;;;;;;;;;1035295;28;19956;-78
2022/12/21 01:24:21;;;;;;;;;;;;;;;;;;1036293;28;19981;-77
2022/12/21 01:24:51;;;;;;;;;;;;;;;;;;1031177;28;19999;-78
2022/12/21 01:25:22;;;;;;;;;;;;;;;;;;1031347;28;19925;-77
2022/12/21 01:25:53;;;;;;;;;;;;;;;;;;1027099;28;19976;-78
2022/12/21 01:26:24;;;;;;;;;;;;;;;;;;1023085;29;20095;-77
2022/12/21 01:26:55;;;;;;;;;;;;;;;;;;1026651;28;19945;-77
2022/12/21 01:27:26;;;;;;;;;;;;;;;;;;1035015;28;19916;-77
2022/12/21 01:27:57;;;;;;;;;;;;;;;;;;1030974;28;19918;-79
2022/12/21 01:28:28;;;;;;;;;;;;;;;;;;1034075;28;20424;-77
2022/12/21 01:28:58;;;;;;;;;;;;;;;;;;1031440;28;20714;-77
2022/12/21 01:29:29;;;;;;;;;;;;;;;;;;1037548;28;19992;-77
2022/12/21 01:30:00;;;;;;;;;;;;;;;;;;1037192;28;20621;-77
2022/12/21 01:30:31;;;;;;;;;;;;;;;;;;1034664;28;19909;-78
2022/12/21 01:31:02;;;;;;;;;;;;;;;;;;1035232;28;20474;-77
2022/12/21 01:31:33;;;;;;;;;;;;;;;;;;1034966;28;19936;-77
2022/12/21 01:32:04;;;;;;;;;;;;;;;;;;1035854;28;19914;-77
2022/12/21 01:32:34;;;;;;;;;;;;;;;;;;1031048;28;19920;-79
2022/12/21 01:33:05;;;;;;;;;;;;;;;;;;1031145;28;20001;-77
2022/12/21 01:33:36;;;;;;;;;;;;;;;;;;1030972;28;19913;-78
2022/12/21 01:34:07;;;;;;;;;;;;;;;;;;1031053;28;19982;-78
2022/12/21 01:34:38;;;;;;;;;;;;;;;;;;1032409;28;19910;-77
2022/12/21 01:35:09;;;;;;;;;;;;;;;;;;1031449;28;19920;-78
2022/12/21 01:35:40;;;;;;;;;;;;;;;;;;1035106;28;19953;-78
2022/12/21 01:36:11;;;;;;;;;;;;;;;;;;1035378;28;19914;-78
2022/12/21 01:36:42;;;;;;;;;;;;;;;;;;1033409;28;19918;-78
2022/12/21 01:37:12;;;;;;;;;;;;;;;;;;1032371;28;19914;-77
2022/12/21 01:37:43;;;;;;;;;;;;;;;;;;1031277;28;20000;-78
2022/12/21 01:38:14;;;;;;;;;;;;;;;;;;1034840;28;19932;-78
2022/12/21 01:38:45;;;;;;;;;;;;;;;;;;1030985;28;19913;-78
2022/12/21 01:39:16;;;;;;;;;;;;;;;;;;1031547;28;19917;-78
2022/12/21 01:39:47;;;;;;;;;;;;;;;;;;1032641;28;19918;-77
2022/12/21 01:40:18;;;;;;;;;;;;;;;;;;1032924;28;20369;-77
2022/12/21 01:40:49;;;;;;;;;;;;;;;;;;1039585;28;20339;-77
2022/12/21 01:41:20;;;;;;;;;;;;;;;;;;1039409;28;20373;-80
2022/12/21 01:41:51;;;;;;;;;;;;;;;;;;1035472;28;20004;-77
2022/12/21 01:42:22;;;;;;;;;;;;;;;;;;1032491;28;20452;-78
2022/12/21 01:42:53;;;;;;;;;;;;;;;;;;1031241;28;20640;-80
2022/12/21 01:43:23;;;;;;;;;;;;;;;;;;1035063;28;19953;-79
2022/12/21 01:43:54;;;;;;;;;;;;;;;;;;1035317;28;20387;-79
2022/12/21 01:44:25;;;;;;;;;;;;;;;;;;1039869;28;19970;-77
2022/12/21 01:44:56;;;;;;;;;;;;;;;;;;1036312;28;19909;-77
2022/12/21 01:45:27;;;;;;;;;;;;;;;;;;1031421;28;19980;-77
2022/12/21 01:45:58;;;;;;;;;;;;;;;;;;1031020;28;19918;-78
2022/12/21 01:46:29;;;;;;;;;;;;;;;;;;1031441;28;19996;-78
2022/12/21 01:47:00;;;;;;;;;;;;;;;;;;1029309;28;20298;-78
2022/12/21 01:47:30;;;;;;;;;;;;;;;;;;1032357;28;19914;-77
2022/12/21 01:48:01;;;;;;;;;;;;;;;;;;1027079;28;19988;-78
2022/12/21 01:48:32;;;;;;;;;;;;;;;;;;1027486;28;19921;-78
2022/12/21 01:49:03;;;;;;;;;;;;;;;;;;1026920;28;19964;-78
2022/12/21 01:49:34;;;;;;;;;;;;;;;;;;1023421;28;19910;-78
2022/12/21 01:50:05;;;;;;;;;;;;;;;;;;1028197;28;19970;-78
2022/12/21 01:50:36;;;;;;;;;;;;;;;;;;1027522;28;19923;-78
2022/12/21 01:51:06;;;;;;;;;;;;;;;;;;1031376;28;20440;-78
2022/12/21 01:51:37;;;;;;;;;;;;;;;;;;1031248;28;19920;-78
2022/12/21 01:52:08;;;;;;;;;;;;;;;;;;1031538;28;20651;-78
2022/12/21 01:52:39;;;;;;;;;;;;;;;;;;1039177;28;19949;-78
2022/12/21 01:53:10;;;;;;;;;;;;;;;;;;1039712;28;19913;-78
2022/12/21 01:53:41;;;;;;;;;;;;;;;;;;1039091;28;20378;-78
2022/12/21 01:54:12;;;;;;;;;;;;;;;;;;1039668;28;20564;-77
2022/12/21 01:54:43;;;;;;;;;;;;;;;;;;1039263;28;20001;-77
2022/12/21 01:55:14;;;;;;;;;;;;;;;;;;1040680;28;19984;-77
2022/12/21 01:55:44;;;;;;;;;;;;;;;;;;1034981;28;19914;-78
2022/12/21 01:56:15;;;;;;;;;;;;;;;;;;1037380;28;19920;-78
2022/12/21 01:56:46;;;;;;;;;;;;;;;;;;1035172;28;20439;-78
2022/12/21 01:57:17;;;;;;;;;;;;;;;;;;1035808;28;19945;-78
2022/12/21 01:57:48;;;;;;;;;;;;;;;;;;1039331;28;20323;-78
2022/12/21 01:58:19;;;;;;;;;;;;;;;;;;1035559;28;19970;-78
2022/12/21 01:58:50;;;;;;;;;;;;;;;;;;1027234;28;19918;-78
2022/12/21 01:59:20;;;;;;;;;;;;;;;;;;1029110;28;20496;-78
2022/12/21 01:59:51;;;;;;;;;;;;;;;;;;1031375;28;20048;-78
2022/12/21 02:00:22;;;;;;;;;;;;;;;;;;1033028;28;20764;-78
2022/12/21 02:00:53;;;;;;;;;;;;;;;;;;1035052;28;20647;-78
2022/12/21 02:01:24;;;;;;;;;;;;;;;;;;1035414;28;19967;-78
2022/12/21 02:01:55;;;;;;;;;;;;;;;;;;1034984;28;20710;-78
2022/12/21 02:02:26;;;;;;;;;;;;;;;;;;1035641;28;20406;-78
2022/12/21 02:02:57;;;;;;;;;;;;;;;;;;1035257;28;19913;-78
2022/12/21 02:03:27;;;;;;;;;;;;;;;;;;1035518;28;19930;-78
2022/12/21 02:03:58;;;;;;;;;;;;;;;;;;1039484;28;20084;-78
2022/12/21 02:04:29;;;;;;;;;;;;;;;;;;1037061;28;19913;-78
2022/12/21 02:05:00;;;;;;;;;;;;;;;;;;1035283;28;19913;-78
2022/12/21 02:05:31;;;;;;;;;;;;;;;;;;1036395;28;20008;-78
2022/12/21 02:06:02;;;;;;;;;;;;;;;;;;1036258;28;20016;-78
2022/12/21 02:06:33;;;;;;;;;;;;;;;;;;1035143;28;19928;-78
2022/12/21 02:07:04;;;;;;;;;;;;;;;;;;1035057;28;20009;-78
2022/12/21 02:07:35;;;;;;;;;;;;;;;;;;1035354;28;19944;-78
2022/12/21 02:08:06;;;;;;;;;;;;;;;;;;1036375;28;19921;-78
2022/12/21 02:08:37;;;;;;;;;;;;;;;;;;1035320;28;19914;-78
2022/12/21 02:09:08;;;;;;;;;;;;;;;;;;1035281;28;20000;-78
2022/12/21 02:09:38;;;;;;;;;;;;;;;;;;1032439;28;21655;-79
2022/12/21 02:10:09;;;;;;;;;;;;;;;;;;1031268;28;20004;-78
2022/12/21 02:10:40;;;;;;;;;;;;;;;;;;1032199;28;19914;-78
2022/12/21 02:11:11;;;;;;;;;;;;;;;;;;1035487;28;19924;-77
2022/12/21 02:11:42;;;;;;;;;;;;;;;;;;1035249;28;19949;-79
2022/12/21 02:12:13;;;;;;;;;;;;;;;;;;1030968;28;19929;-78
2022/12/21 02:12:44;;;;;;;;;;;;;;;;;;1034801;28;19914;-78
2022/12/21 02:13:15;;;;;;;;;;;;;;;;;;1036566;28;19909;-78
2022/12/21 02:13:45;;;;;;;;;;;;;;;;;;1039308;28;20323;-78
2022/12/21 02:14:16;;;;;;;;;;;;;;;;;;1035331;28;20047;-78
2022/12/21 02:14:47;;;;;;;;;;;;;;;;;;1034844;28;20016;-79
2022/12/21 02:15:18;;;;;;;;;;;;;;;;;;1031303;28;20285;-78
2022/12/21 02:15:49;;;;;;;;;;;;;;;;;;1031816;28;19913;-78
2022/12/21 02:16:20;;;;;;;;;;;;;;;;;;1035143;28;19987;-79
2022/12/21 02:16:52;;;;;;;;;;;;;;;;;;1031110;28;19924;-79
2022/12/21 02:17:22;;;;;;;;;;;;;;;;;;1035342;28;19957;-78
2022/12/21 02:17:53;;;;;;;;;;;;;;;;;;1034991;28;19913;-78
2022/12/21 02:18:24;;;;;;;;;;;;;;;;;;1036565;28;19913;-78
2022/12/21 02:18:55;;;;;;;;;;;;;;;;;;1035100;28;19913;-78
2022/12/21 02:19:26;;;;;;;;;;;;;;;;;;1035297;28;20408;-78
2022/12/21 02:19:57;;;;;;;;;;;;;;;;;;1034926;28;19953;-78
2022/12/21 02:20:28;;;;;;;;;;;;;;;;;;1035635;28;19913;-77
2022/12/21 02:20:59;;;;;;;;;;;;;;;;;;1039541;28;19948;-78
2022/12/21 02:21:30;;;;;;;;;;;;;;;;;;1031495;28;20308;-78
2022/12/21 02:22:00;;;;;;;;;;;;;;;;;;1031490;28;19964;-78
2022/12/21 02:22:32;;;;;;;;;;;;;;;;;;1031420;28;19914;-78
2022/12/21 02:23:03;;;;;;;;;;;;;;;;;;1031280;28;19914;-78
2022/12/21 02:23:34;;;;;;;;;;;;;;;;;;1031905;28;19914;-78
2022/12/21 02:24:05;;;;;;;;;;;;;;;;;;1031647;28;20092;-77
2022/12/21 02:24:36;;;;;;;;;;;;;;;;;;1031218;28;19917;-78
2022/12/21 02:25:07;;;;;;;;;;;;;;;;;;1031008;28;19918;-78
2022/12/21 02:25:38;;;;;;;;;;;;;;;;;;1035366;28;19914;-78
2022/12/21 02:26:09;;;;;;;;;;;;;;;;;;1031657;28;20588;-77
2022/12/21 02:26:40;;;;;;;;;;;;;;;;;;1031497;28;19933;-78
2022/12/21 02:27:10;;;;;;;;;;;;;;;;;;1031216;28;19921;-78
2022/12/21 02:27:41;;;;;;;;;;;;;;;;;;1031186;28;19956;-78
2022/12/21 02:28:12;;;;;;;;;;;;;;;;;;1036486;28;20690;-77
2022/12/21 02:28:44;;;;;;;;;;;;;;;;;;1039872;28;19916;-77
2022/12/21 02:29:15;;;;;;;;;;;;;;;;;;1039621;28;19927;-77
2022/12/21 02:29:46;;;;;;;;;;;;;;;;;;1034942;28;19909;-78
2022/12/21 02:30:17;;;;;;;;;;;;;;;;;;1031232;28;19996;-78
2022/12/21 02:30:48;;;;;;;;;;;;;;;;;;1031056;28;19917;-78
2022/12/21 02:31:19;;;;;;;;;;;;;;;;;;1031882;28;19910;-79
2022/12/21 02:31:50;;;;;;;;;;;;;;;;;;1031039;28;19945;-78
2022/12/21 02:32:20;;;;;;;;;;;;;;;;;;1030951;28;19981;-78
2022/12/21 02:32:51;;;;;;;;;;;;;;;;;;1031287;28;19906;-78
2022/12/21 02:33:22;;;;;;;;;;;;;;;;;;1034948;28;19909;-77
2022/12/21 02:33:53;;;;;;;;;;;;;;;;;;1035477;28;20340;-78
2022/12/21 02:34:24;;;;;;;;;;;;;;;;;;1031715;28;20266;-78
2022/12/21 02:34:55;;;;;;;;;;;;;;;;;;1031665;28;19910;-78
2022/12/21 02:35:26;;;;;;;;;;;;;;;;;;1031083;28;19972;-77
2022/12/21 02:35:57;;;;;;;;;;;;;;;;;;1031357;28;19910;-77
2022/12/21 02:36:28;;;;;;;;;;;;;;;;;;1030931;28;20016;-78
2022/12/21 02:36:58;;;;;;;;;;;;;;;;;;1032022;28;19944;-78
2022/12/21 02:37:29;;;;;;;;;;;;;;;;;;1034870;28;19910;-78
2022/12/21 02:38:01;;;;;;;;;;;;;;;;;;1035082;28;20616;-78
2022/12/21 02:38:32;;;;;;;;;;;;;;;;;;1035249;28;19913;-78
2022/12/21 02:39:03;;;;;;;;;;;;;;;;;;1034599;28;19945;-78
2022/12/21 02:39:34;;;;;;;;;;;;;;;;;;1032244;28;19920;-78
2022/12/21 02:40:05;;;;;;;;;;;;;;;;;;1039128;28;19920;-78
2022/12/21 02:40:36;;;;;;;;;;;;;;;;;;1039308;28;19913;-78
2022/12/21 02:41:07;;;;;;;;;;;;;;;;;;1038768;28;20299;-78
2022/12/21 02:41:38;;;;;;;;;;;;;;;;;;1039339;28;19920;-78
2022/12/21 02:42:08;;;;;;;;;;;;;;;;;;1035814;28;20434;-77
2022/12/21 02:44:14;;;;;;;;;;;;;;;;;;1031437;28;19993;-78
2022/12/21 02:44:24;;;;;;;;;;;;;;;;;;1025180;28;19930;-78
2022/12/21 02:44:55;;;;;;;;;;;;;;;;;;1030848;28;19914;-78
2022/12/21 02:45:26;;;;;;;;;;;;;;;;;;1032633;28;19918;-77
2022/12/21 02:45:56;;;;;;;;;;;;;;;;;;1034936;28;19996;-78
2022/12/21 02:46:27;;;;;;;;;;;;;;;;;;1031594;28;20020;-77
2022/12/21 02:46:58;;;;;;;;;;;;;;;;;;1035725;28;19913;-78
2022/12/21 02:47:29;;;;;;;;;;;;;;;;;;1031555;28;20381;-78
2022/12/21 02:48:00;;;;;;;;;;;;;;;;;;1030753;28;19949;-78
2022/12/21 02:48:31;;;;;;;;;;;;;;;;;;1032110;28;19914;-78
2022/12/21 02:49:02;;;;;;;;;;;;;;;;;;1035093;28;19913;-79
2022/12/21 02:49:33;;;;;;;;;;;;;;;;;;1040315;28;20634;-78
2022/12/21 02:50:04;;;;;;;;;;;;;;;;;;1039143;28;19913;-78
2022/12/21 02:50:34;;;;;;;;;;;;;;;;;;1035371;28;20028;-78
2022/12/21 02:51:05;;;;;;;;;;;;;;;;;;1034864;28;20035;-78
2022/12/21 02:51:36;;;;;;;;;;;;;;;;;;1035306;28;19910;-78
2022/12/21 02:52:07;;;;;;;;;;;;;;;;;;1036080;28;19967;-77
2022/12/21 02:52:38;;;;;;;;;;;;;;;;;;1035427;28;19949;-78
2022/12/21 02:53:09;;;;;;;;;;;;;;;;;;1030813;28;19920;-78
2022/12/21 02:53:40;;;;;;;;;;;;;;;;;;1031291;28;19914;-78
2022/12/21 02:54:11;;;;;;;;;;;;;;;;;;1027125;28;19910;-78
2022/12/21 02:54:43;;;;;;;;;;;;;;;;;;1031629;28;19914;-79
2022/12/21 02:55:14;;;;;;;;;;;;;;;;;;1035357;28;20455;-78
2022/12/21 02:55:45;;;;;;;;;;;;;;;;;;1030920;28;20507;-78
2022/12/21 02:56:16;;;;;;;;;;;;;;;;;;1027200;28;19914;-77
2022/12/21 02:56:47;;;;;;;;;;;;;;;;;;1027338;28;19953;-78
2022/12/21 02:57:18;;;;;;;;;;;;;;;;;;1031570;28;20262;-78
2022/12/21 02:57:49;;;;;;;;;;;;;;;;;;1034944;28;20004;-78
2022/12/21 02:58:20;;;;;;;;;;;;;;;;;;1035073;28;20427;-78
2022/12/21 02:58:51;;;;;;;;;;;;;;;;;;1030944;28;20676;-78
2022/12/21 02:59:22;;;;;;;;;;;;;;;;;;1029108;28;20369;-78
2022/12/21 02:59:53;;;;;;;;;;;;;;;;;;1027180;28;19918;-80
2022/12/21 03:00:24;;;;;;;;;;;;;;;;;;1032090;28;19913;-78
2022/12/21 03:00:55;;;;;;;;;;;;;;;;;;1030191;28;19940;-78
2022/12/21 03:01:26;;;;;;;;;;;;;;;;;;1031266;28;19948;-78
2022/12/21 03:01:57;;;;;;;;;;;;;;;;;;1031419;28;20436;-78
2022/12/21 03:02:28;;;;;;;;;;;;;;;;;;1035348;28;19920;-78
2022/12/21 03:03:50;;;;;;;;;;;;;;;;;;1017549;29;20658;-78
2022/12/21 03:04:20;;;;;;;;;;;;;;;;;;1018905;29;20310;-78
2022/12/21 03:04:51;;;;;;;;;;;;;;;;;;1028986;28;20381;-78
2022/12/21 03:05:22;;;;;;;;;;;;;;;;;;1036161;28;19937;-78
2022/12/21 03:05:53;;;;;;;;;;;;;;;;;;1030919;28;19914;-78
2022/12/21 03:06:24;;;;;;;;;;;;;;;;;;1031229;28;19965;-78
2022/12/21 03:06:55;;;;;;;;;;;;;;;;;;1030954;28;19933;-77
2022/12/21 03:07:26;;;;;;;;;;;;;;;;;;1031268;28;19914;-78
2022/12/21 03:07:57;;;;;;;;;;;;;;;;;;1034597;28;20171;-77
2022/12/21 03:08:28;;;;;;;;;;;;;;;;;;1035277;28;19992;-77
2022/12/21 03:08:58;;;;;;;;;;;;;;;;;;1034888;28;19906;-79
2022/12/21 03:09:29;;;;;;;;;;;;;;;;;;1038093;28;19909;-78
2022/12/21 03:10:00;;;;;;;;;;;;;;;;;;1034792;28;19917;-77
2022/12/21 03:10:31;;;;;;;;;;;;;;;;;;1036429;28;20357;-78
2022/12/21 03:11:02;;;;;;;;;;;;;;;;;;1030595;28;20037;-78
2022/12/21 03:11:33;;;;;;;;;;;;;;;;;;1031193;28;20049;-78
2022/12/21 03:12:04;;;;;;;;;;;;;;;;;;1027388;28;19965;-78
2022/12/21 03:12:35;;;;;;;;;;;;;;;;;;1031018;28;19910;-77
2022/12/21 03:13:06;;;;;;;;;;;;;;;;;;1032212;28;19906;-78
2022/12/21 03:13:37;;;;;;;;;;;;;;;;;;1035597;28;19952;-78
2022/12/21 03:14:08;;;;;;;;;;;;;;;;;;1034949;28;20312;-77
2022/12/21 03:14:38;;;;;;;;;;;;;;;;;;1034978;28;20028;-77
2022/12/21 03:15:09;;;;;;;;;;;;;;;;;;1035127;28;19910;-77
2022/12/21 03:15:40;;;;;;;;;;;;;;;;;;1036036;28;19909;-77
2022/12/21 03:16:11;;;;;;;;;;;;;;;;;;1039388;28;20276;-77
2022/12/21 03:16:42;;;;;;;;;;;;;;;;;;1034644;28;19940;-78
2022/12/21 03:17:13;;;;;;;;;;;;;;;;;;1031453;28;19909;-78
2022/12/21 03:17:44;;;;;;;;;;;;;;;;;;1035043;28;19910;-78
2022/12/21 03:18:15;;;;;;;;;;;;;;;;;;1036026;28;20369;-78
2022/12/21 03:18:46;;;;;;;;;;;;;;;;;;1035258;28;19909;-79
2022/12/21 03:19:16;;;;;;;;;;;;;;;;;;1039314;28;20000;-78
2022/12/21 03:19:47;;;;;;;;;;;;;;;;;;1036939;28;19909;-78
2022/12/21 03:20:19;;;;;;;;;;;;;;;;;;1035460;28;19937;-78
2022/12/21 03:20:50;;;;;;;;;;;;;;;;;;1031685;28;19917;-78
2022/12/21 03:21:21;;;;;;;;;;;;;;;;;;1028013;28;19957;-77
2022/12/21 03:21:51;;;;;;;;;;;;;;;;;;1030855;28;19917;-78
2022/12/21 03:22:22;;;;;;;;;;;;;;;;;;1027596;28;20750;-78
2022/12/21 03:22:53;;;;;;;;;;;;;;;;;;1031169;28;19948;-78
2022/12/21 03:23:24;;;;;;;;;;;;;;;;;;1043719;28;20364;-78
2022/12/21 03:23:55;;;;;;;;;;;;;;;;;;1039004;28;19909;-78
2022/12/21 03:24:26;;;;;;;;;;;;;;;;;;1035219;28;19993;-79
2022/12/21 03:24:57;;;;;;;;;;;;;;;;;;1034908;28;20100;-77
2022/12/21 03:25:28;;;;;;;;;;;;;;;;;;1031119;28;20316;-78
2022/12/21 03:25:59;;;;;;;;;;;;;;;;;;1028037;28;19937;-78
2022/12/21 03:26:30;;;;;;;;;;;;;;;;;;1024541;28;20377;-78
2022/12/21 03:27:00;;;;;;;;;;;;;;;;;;1024595;28;19910;-77
2022/12/21 03:27:31;;;;;;;;;;;;;;;;;;1027395;28;20786;-79
2022/12/21 03:28:02;;;;;;;;;;;;;;;;;;1030917;28;19973;-78
2022/12/21 03:28:33;;;;;;;;;;;;;;;;;;1037046;28;20284;-76
2022/12/21 03:29:04;;;;;;;;;;;;;;;;;;1032377;28;19914;-78
2022/12/21 03:29:35;;;;;;;;;;;;;;;;;;1031914;28;19913;-77
2022/12/21 03:30:06;;;;;;;;;;;;;;;;;;1031607;28;20004;-79
2022/12/21 03:30:36;;;;;;;;;;;;;;;;;;1032249;28;19914;-78
2022/12/21 03:31:07;;;;;;;;;;;;;;;;;;1036064;28;20023;-78
2022/12/21 03:31:38;;;;;;;;;;;;;;;;;;1032007;28;19926;-78
2022/12/21 03:32:09;;;;;;;;;;;;;;;;;;1031451;28;20328;-77
2022/12/21 03:32:40;;;;;;;;;;;;;;;;;;1031816;28;20380;-79
2022/12/21 03:33:14;;;;;;;;;;;;;;;;;;1035375;28;19914;-78